sensor_id;sensor_type;location;lat;lon;timestamp;pressure;altitude;pressure_sealevel;temperature;humidity
38038;BME280;23843;51.320;12.340;2022-07-23T00:01:15;100478.34;;;20.74;60.12
38038;BME280;23843;51.320;12.340;2022-07-23T00:03:41;100482.97;;;20.91;59.43
38038;BME280;23843;51.320;12.340;2022-07-23T00:06:06;100480.84;;;20.95;58.07
38038;BME280;23843;51.320;12.340;2022-07-23T00:08:32;100479.44;;;20.81;59.45
38038;BME280;23843;51.320;12.340;2022-07-23T00:10:57;100488.53;;;20.80;59.74
38038;BME280;23843;51.320;12.340;2022-07-23T00:13:23;100474.38;;;20.78;59.38
38038;BME280;23843;51.320;12.340;2022-07-23T00:15:48;100471.94;;;20.75;59.70
38038;BME280;23843;51.320;12.340;2022-07-23T00:18:15;100475.78;;;20.72;59.71
38038;BME280;23843;51.320;12.340;2022-07-23T00:20:40;100470.84;;;20.68;59.40
38038;BME280;23843;51.320;12.340;2022-07-23T00:23:06;100467.72;;;20.63;59.62
38038;BME280;23843;51.320;12.340;2022-07-23T00:25:31;100467.31;;;20.58;59.84
38038;BME280;23843;51.320;12.340;2022-07-23T00:27:57;100460.50;;;20.53;60.64
38038;BME280;23843;51.320;12.340;2022-07-23T00:30:23;100459.63;;;20.53;60.09
38038;BME280;23843;51.320;12.340;2022-07-23T00:32:49;100467.91;;;20.42;61.73
38038;BME280;23843;51.320;12.340;2022-07-23T00:35:19;100471.53;;;20.50;61.11
38038;BME280;23843;51.320;12.340;2022-07-23T00:37:45;100454.88;;;20.57;61.00
38038;BME280;23843;51.320;12.340;2022-07-23T00:40:11;100445.78;;;20.58;61.27
38038;BME280;23843;51.320;12.340;2022-07-23T00:42:37;100441.53;;;20.55;59.83
38038;BME280;23843;51.320;12.340;2022-07-23T00:45:02;100435.59;;;20.42;62.01
38038;BME280;23843;51.320;12.340;2022-07-23T00:47:28;100428.50;;;20.41;61.12
38038;BME280;23843;51.320;12.340;2022-07-23T00:49:53;100422.59;;;20.37;61.74
38038;BME280;23843;51.320;12.340;2022-07-23T00:52:20;100418.88;;;20.38;60.92
38038;BME280;23843;51.320;12.340;2022-07-23T00:54:49;100424.00;;;20.41;60.41
38038;BME280;23843;51.320;12.340;2022-07-23T00:57:14;100417.75;;;20.31;61.86
38038;BME280;23843;51.320;12.340;2022-07-23T00:59:40;100421.59;;;20.28;62.43
38038;BME280;23843;51.320;12.340;2022-07-23T01:02:06;100429.81;;;20.27;62.48
38038;BME280;23843;51.320;12.340;2022-07-23T01:04:31;100426.28;;;20.36;61.56
38038;BME280;23843;51.320;12.340;2022-07-23T01:06:57;100418.63;;;20.31;61.96
38038;BME280;23843;51.320;12.340;2022-07-23T01:09:24;100421.31;;;20.31;62.60
38038;BME280;23843;51.320;12.340;2022-07-23T01:11:50;100422.59;;;20.27;62.06
38038;BME280;23843;51.320;12.340;2022-07-23T01:14:17;100416.81;;;20.22;62.67
38038;BME280;23843;51.320;12.340;2022-07-23T01:16:45;100411.56;;;20.21;62.23
38038;BME280;23843;51.320;12.340;2022-07-23T01:19:11;100414.97;;;20.13;63.23
38038;BME280;23843;51.320;12.340;2022-07-23T01:21:38;100405.91;;;20.14;63.32
38038;BME280;23843;51.320;12.340;2022-07-23T01:24:07;100396.84;;;20.15;63.46
38038;BME280;23843;51.320;12.340;2022-07-23T01:26:32;100395.13;;;20.14;62.14
38038;BME280;23843;51.320;12.340;2022-07-23T01:28:58;100395.31;;;20.13;62.50
38038;BME280;23843;51.320;12.340;2022-07-23T01:31:23;100391.91;;;20.10;62.88
38038;BME280;23843;51.320;12.340;2022-07-23T01:33:49;100391.78;;;20.12;63.27
38038;BME280;23843;51.320;12.340;2022-07-23T01:36:14;100401.66;;;20.12;62.43
38038;BME280;23843;51.320;12.340;2022-07-23T01:38:40;100396.00;;;20.15;63.07
38038;BME280;23843;51.320;12.340;2022-07-23T01:41:07;100396.97;;;20.23;62.79
38038;BME280;23843;51.320;12.340;2022-07-23T01:43:32;100396.25;;;20.31;62.17
38038;BME280;23843;51.320;12.340;2022-07-23T01:45:58;100394.84;;;20.27;62.96
38038;BME280;23843;51.320;12.340;2022-07-23T01:48:23;100391.03;;;20.29;62.62
38038;BME280;23843;51.320;12.340;2022-07-23T01:50:48;100392.28;;;20.35;62.24
38038;BME280;23843;51.320;12.340;2022-07-23T01:53:14;100386.03;;;20.44;62.23
38038;BME280;23843;51.320;12.340;2022-07-23T01:55:40;100387.88;;;20.44;61.17
38038;BME280;23843;51.320;12.340;2022-07-23T01:58:06;100386.19;;;20.33;61.19
38038;BME280;23843;51.320;12.340;2022-07-23T02:00:32;100389.75;;;20.24;62.23
38038;BME280;23843;51.320;12.340;2022-07-23T02:02:57;100384.94;;;20.27;61.83
38038;BME280;23843;51.320;12.340;2022-07-23T02:05:23;100380.00;;;20.23;62.14
38038;BME280;23843;51.320;12.340;2022-07-23T02:07:48;100370.50;;;20.19;62.23
38038;BME280;23843;51.320;12.340;2022-07-23T02:10:14;100376.88;;;20.18;62.21
38038;BME280;23843;51.320;12.340;2022-07-23T02:12:39;100376.47;;;20.22;61.54
38038;BME280;23843;51.320;12.340;2022-07-23T02:15:07;100378.84;;;20.25;62.28
38038;BME280;23843;51.320;12.340;2022-07-23T02:17:33;100384.63;;;20.30;61.97
38038;BME280;23843;51.320;12.340;2022-07-23T02:19:58;100390.44;;;20.26;61.62
38038;BME280;23843;51.320;12.340;2022-07-23T02:22:23;100395.81;;;20.26;61.24
38038;BME280;23843;51.320;12.340;2022-07-23T02:24:49;100409.56;;;20.33;62.34
38038;BME280;23843;51.320;12.340;2022-07-23T02:27:14;100407.00;;;20.31;61.76
38038;BME280;23843;51.320;12.340;2022-07-23T02:29:40;100417.09;;;20.29;62.01
38038;BME280;23843;51.320;12.340;2022-07-23T02:32:07;100410.13;;;20.36;61.07
38038;BME280;23843;51.320;12.340;2022-07-23T02:34:32;100414.41;;;20.29;61.58
38038;BME280;23843;51.320;12.340;2022-07-23T02:36:57;100421.47;;;20.30;62.13
38038;BME280;23843;51.320;12.340;2022-07-23T02:39:23;100416.06;;;20.40;61.49
38038;BME280;23843;51.320;12.340;2022-07-23T02:41:48;100422.44;;;20.48;61.02
38038;BME280;23843;51.320;12.340;2022-07-23T02:44:14;100422.59;;;20.37;61.45
38038;BME280;23843;51.320;12.340;2022-07-23T02:46:39;100416.38;;;20.27;62.01
38038;BME280;23843;51.320;12.340;2022-07-23T02:49:06;100422.31;;;20.21;62.34
38038;BME280;23843;51.320;12.340;2022-07-23T02:51:31;100414.41;;;20.19;61.79
38038;BME280;23843;51.320;12.340;2022-07-23T02:53:57;100411.44;;;20.13;62.26
38038;BME280;23843;51.320;12.340;2022-07-23T02:56:22;100406.06;;;20.13;62.94
38038;BME280;23843;51.320;12.340;2022-07-23T02:58:47;100418.66;;;20.12;62.20
38038;BME280;23843;51.320;12.340;2022-07-23T03:01:13;100415.09;;;20.12;62.92
38038;BME280;23843;51.320;12.340;2022-07-23T03:03:38;100410.31;;;20.15;61.46
38038;BME280;23843;51.320;12.340;2022-07-23T03:06:06;100417.53;;;19.95;61.74
38038;BME280;23843;51.320;12.340;2022-07-23T03:08:31;100416.94;;;19.72;62.94
38038;BME280;23843;51.320;12.340;2022-07-23T03:10:56;100410.03;;;19.70;63.22
38038;BME280;23843;51.320;12.340;2022-07-23T03:13:22;100402.50;;;19.63;62.58
38038;BME280;23843;51.320;12.340;2022-07-23T03:15:47;100405.44;;;19.60;63.22
38038;BME280;23843;51.320;12.340;2022-07-23T03:18:13;100402.22;;;19.57;63.00
38038;BME280;23843;51.320;12.340;2022-07-23T03:20:38;100400.22;;;19.49;63.47
38038;BME280;23843;51.320;12.340;2022-07-23T03:23:05;100401.75;;;19.42;63.30
38038;BME280;23843;51.320;12.340;2022-07-23T03:25:30;100387.63;;;19.40;64.08
38038;BME280;23843;51.320;12.340;2022-07-23T03:27:56;100378.44;;;19.52;63.74
38038;BME280;23843;51.320;12.340;2022-07-23T03:30:21;100373.66;;;19.46;63.07
38038;BME280;23843;51.320;12.340;2022-07-23T03:32:46;100372.91;;;19.34;63.06
38038;BME280;23843;51.320;12.340;2022-07-23T03:35:12;100371.88;;;19.16;64.21
38038;BME280;23843;51.320;12.340;2022-07-23T03:37:37;100370.16;;;19.05;64.38
38038;BME280;23843;51.320;12.340;2022-07-23T03:40:06;100368.75;;;19.01;64.43
38038;BME280;23843;51.320;12.340;2022-07-23T03:42:31;100376.91;;;18.99;65.00
38038;BME280;23843;51.320;12.340;2022-07-23T03:44:57;100381.59;;;18.97;65.10
38038;BME280;23843;51.320;12.340;2022-07-23T03:47:22;100381.00;;;18.94;64.57
38038;BME280;23843;51.320;12.340;2022-07-23T03:49:48;100382.25;;;18.90;65.00
38038;BME280;23843;51.320;12.340;2022-07-23T03:52:13;100383.84;;;18.92;64.88
38038;BME280;23843;51.320;12.340;2022-07-23T03:54:39;100385.56;;;19.03;64.26
38038;BME280;23843;51.320;12.340;2022-07-23T03:57:06;100379.19;;;19.04;64.49
38038;BME280;23843;51.320;12.340;2022-07-23T03:59:31;100382.59;;;19.06;63.87
38038;BME280;23843;51.320;12.340;2022-07-23T04:01:57;100394.19;;;19.07;63.98
38038;BME280;23843;51.320;12.340;2022-07-23T04:04:22;100412.88;;;19.18;64.57
38038;BME280;23843;51.320;12.340;2022-07-23T04:06:47;100440.91;;;19.35;63.90
38038;BME280;23843;51.320;12.340;2022-07-23T04:09:13;100487.03;;;19.50;63.35
38038;BME280;23843;51.320;12.340;2022-07-23T04:11:38;100528.66;;;19.65;62.97
38038;BME280;23843;51.320;12.340;2022-07-23T04:14:05;100551.94;;;19.76;62.56
38038;BME280;23843;51.320;12.340;2022-07-23T04:16:30;100556.91;;;19.80;62.24
38038;BME280;23843;51.320;12.340;2022-07-23T04:18:56;100545.28;;;19.80;61.97
38038;BME280;23843;51.320;12.340;2022-07-23T04:21:22;100547.41;;;19.76;62.09
38038;BME280;23843;51.320;12.340;2022-07-23T04:23:48;100535.41;;;19.80;62.19
38038;BME280;23843;51.320;12.340;2022-07-23T04:26:13;100533.41;;;19.82;62.13
38038;BME280;23843;51.320;12.340;2022-07-23T04:28:39;100521.97;;;19.80;61.82
38038;BME280;23843;51.320;12.340;2022-07-23T04:31:05;100510.34;;;19.80;62.20
38038;BME280;23843;51.320;12.340;2022-07-23T04:33:31;100489.41;;;19.83;61.74
38038;BME280;23843;51.320;12.340;2022-07-23T04:35:56;100475.97;;;19.83;61.49
38038;BME280;23843;51.320;12.340;2022-07-23T04:38:22;100470.72;;;19.82;60.77
38038;BME280;23843;51.320;12.340;2022-07-23T04:40:47;100460.63;;;19.64;62.10
38038;BME280;23843;51.320;12.340;2022-07-23T04:43:13;100443.50;;;19.46;62.82
38038;BME280;23843;51.320;12.340;2022-07-23T04:45:38;100403.84;;;19.29;64.90
38038;BME280;23843;51.320;12.340;2022-07-23T04:48:05;100388.44;;;19.21;66.34
38038;BME280;23843;51.320;12.340;2022-07-23T04:50:31;100365.97;;;19.22;67.90
38038;BME280;23843;51.320;12.340;2022-07-23T04:52:56;100345.56;;;19.00;69.04
38038;BME280;23843;51.320;12.340;2022-07-23T04:55:22;100342.88;;;18.69;70.31
38038;BME280;23843;51.320;12.340;2022-07-23T04:57:47;100340.69;;;18.44;71.00
38038;BME280;23843;51.320;12.340;2022-07-23T05:00:13;100337.97;;;18.13;75.29
38038;BME280;23843;51.320;12.340;2022-07-23T05:02:39;100369.06;;;18.04;76.60
38038;BME280;23843;51.320;12.340;2022-07-23T05:05:06;100395.50;;;18.09;74.91
38038;BME280;23843;51.320;12.340;2022-07-23T05:07:32;100427.22;;;18.25;75.33
38038;BME280;23843;51.320;12.340;2022-07-23T05:09:57;100451.97;;;18.49;73.76
38038;BME280;23843;51.320;12.340;2022-07-23T05:12:23;100475.09;;;18.71;73.31
38038;BME280;23843;51.320;12.340;2022-07-23T05:14:48;100484.97;;;18.92;71.77
38038;BME280;23843;51.320;12.340;2022-07-23T05:17:13;100458.53;;;18.87;70.17
38038;BME280;23843;51.320;12.340;2022-07-23T05:19:39;100427.81;;;18.49;73.23
38038;BME280;23843;51.320;12.340;2022-07-23T05:22:06;100424.00;;;18.31;76.89
38038;BME280;23843;51.320;12.340;2022-07-23T05:24:31;100404.47;;;18.40;75.06
38038;BME280;23843;51.320;12.340;2022-07-23T05:26:57;100371.66;;;18.27;76.30
38038;BME280;23843;51.320;12.340;2022-07-23T05:29:22;100404.06;;;18.03;78.10
38038;BME280;23843;51.320;12.340;2022-07-23T05:31:47;100447.69;;;18.05;79.69
38038;BME280;23843;51.320;12.340;2022-07-23T05:34:13;100446.47;;;18.30;78.55
38038;BME280;23843;51.320;12.340;2022-07-23T05:36:38;100437.56;;;18.29;77.65
38038;BME280;23843;51.320;12.340;2022-07-23T05:39:05;100423.38;;;18.17;79.38
38038;BME280;23843;51.320;12.340;2022-07-23T05:41:30;100423.94;;;18.21;78.86
38038;BME280;23843;51.320;12.340;2022-07-23T05:43:56;100431.94;;;18.32;79.70
38038;BME280;23843;51.320;12.340;2022-07-23T05:46:21;100457.97;;;18.42;79.26
38038;BME280;23843;51.320;12.340;2022-07-23T05:48:47;100483.75;;;18.54;78.64
38038;BME280;23843;51.320;12.340;2022-07-23T05:51:12;100483.22;;;18.60;78.93
38038;BME280;23843;51.320;12.340;2022-07-23T05:53:38;100474.25;;;18.71;77.15
38038;BME280;23843;51.320;12.340;2022-07-23T05:56:05;100474.84;;;18.74;77.97
38038;BME280;23843;51.320;12.340;2022-07-23T05:58:30;100462.53;;;18.93;76.13
38038;BME280;23843;51.320;12.340;2022-07-23T06:00:56;100442.06;;;19.01;76.07
38038;BME280;23843;51.320;12.340;2022-07-23T06:03:21;100444.19;;;18.98;75.81
38038;BME280;23843;51.320;12.340;2022-07-23T06:05:47;100440.09;;;19.03;73.00
38038;BME280;23843;51.320;12.340;2022-07-23T06:08:12;100446.50;;;19.12;73.13
38038;BME280;23843;51.320;12.340;2022-07-23T06:10:37;100435.78;;;19.12;73.49
38038;BME280;23843;51.320;12.340;2022-07-23T06:13:04;100437.44;;;19.13;73.04
38038;BME280;23843;51.320;12.340;2022-07-23T06:15:30;100442.69;;;19.15;73.30
38038;BME280;23843;51.320;12.340;2022-07-23T06:17:55;100439.81;;;19.07;73.77
38038;BME280;23843;51.320;12.340;2022-07-23T06:20:21;100447.97;;;19.36;75.11
38038;BME280;23843;51.320;12.340;2022-07-23T06:22:46;100442.66;;;19.65;73.40
38038;BME280;23843;51.320;12.340;2022-07-23T06:25:12;100428.84;;;19.70;72.46
38038;BME280;23843;51.320;12.340;2022-07-23T06:27:37;100429.38;;;19.63;72.19
38038;BME280;23843;51.320;12.340;2022-07-23T06:30:05;100442.66;;;19.55;73.63
38038;BME280;23843;51.320;12.340;2022-07-23T06:32:31;100450.22;;;19.71;73.92
38038;BME280;23843;51.320;12.340;2022-07-23T06:34:56;100451.19;;;19.99;73.12
38038;BME280;23843;51.320;12.340;2022-07-23T06:37:22;100452.91;;;20.20;71.67
38038;BME280;23843;51.320;12.340;2022-07-23T06:39:47;100456.28;;;20.41;70.93
38038;BME280;23843;51.320;12.340;2022-07-23T06:42:12;100439.88;;;20.35;70.35
38038;BME280;23843;51.320;12.340;2022-07-23T06:44:38;100449.78;;;20.34;70.76
38038;BME280;23843;51.320;12.340;2022-07-23T06:47:05;100447.53;;;20.00;71.46
38038;BME280;23843;51.320;12.340;2022-07-23T06:49:30;100453.34;;;19.86;72.05
38038;BME280;23843;51.320;12.340;2022-07-23T06:51:56;100455.72;;;19.79;72.23
38038;BME280;23843;51.320;12.340;2022-07-23T06:54:21;100461.94;;;19.89;71.48
38038;BME280;23843;51.320;12.340;2022-07-23T06:56:47;100466.47;;;19.89;72.03
38038;BME280;23843;51.320;12.340;2022-07-23T06:59:12;100467.91;;;19.93;72.62
38038;BME280;23843;51.320;12.340;2022-07-23T07:01:37;100465.22;;;20.03;73.00
38038;BME280;23843;51.320;12.340;2022-07-23T07:04:04;100469.75;;;19.93;72.55
38038;BME280;23843;51.320;12.340;2022-07-23T07:06:30;100474.44;;;20.10;73.02
38038;BME280;23843;51.320;12.340;2022-07-23T07:08:55;100475.97;;;20.42;73.18
38038;BME280;23843;51.320;12.340;2022-07-23T07:11:20;100472.84;;;20.66;74.14
38038;BME280;23843;51.320;12.340;2022-07-23T07:13:46;100486.94;;;20.97;72.67
38038;BME280;23843;51.320;12.340;2022-07-23T07:16:11;100483.13;;;20.90;70.62
38038;BME280;23843;51.320;12.340;2022-07-23T07:18:37;100488.47;;;21.00;71.06
38038;BME280;23843;51.320;12.340;2022-07-23T07:21:04;100488.19;;;21.03;71.87
38038;BME280;23843;51.320;12.340;2022-07-23T07:23:29;100483.59;;;21.13;71.94
38038;BME280;23843;51.320;12.340;2022-07-23T07:25:54;100487.00;;;21.15;71.79
38038;BME280;23843;51.320;12.340;2022-07-23T07:28:20;100490.66;;;21.14;70.86
38038;BME280;23843;51.320;12.340;2022-07-23T07:30:45;100495.47;;;21.20;70.72
38038;BME280;23843;51.320;12.340;2022-07-23T07:33:11;100481.28;;;21.18;71.09
38038;BME280;23843;51.320;12.340;2022-07-23T07:35:36;100492.78;;;21.20;70.21
38038;BME280;23843;51.320;12.340;2022-07-23T07:38:03;100495.97;;;21.33;70.08
38038;BME280;23843;51.320;12.340;2022-07-23T07:40:28;100500.50;;;21.33;70.08
38038;BME280;23843;51.320;12.340;2022-07-23T07:42:54;100502.06;;;21.35;70.42
38038;BME280;23843;51.320;12.340;2022-07-23T07:45:20;100500.63;;;21.51;70.80
38038;BME280;23843;51.320;12.340;2022-07-23T07:47:46;100499.91;;;21.49;70.89
38038;BME280;23843;51.320;12.340;2022-07-23T07:50:12;100502.66;;;21.39;70.84
38038;BME280;23843;51.320;12.340;2022-07-23T07:52:39;100504.91;;;21.44;70.38
38038;BME280;23843;51.320;12.340;2022-07-23T07:55:08;100505.34;;;21.39;71.02
38038;BME280;23843;51.320;12.340;2022-07-23T07:57:34;100517.25;;;21.36;70.75
38038;BME280;23843;51.320;12.340;2022-07-23T08:00:00;100514.16;;;21.31;70.63
38038;BME280;23843;51.320;12.340;2022-07-23T08:02:25;100509.75;;;21.30;71.03
38038;BME280;23843;51.320;12.340;2022-07-23T08:04:51;100505.03;;;21.42;70.32
38038;BME280;23843;51.320;12.340;2022-07-23T08:07:16;100504.47;;;21.38;70.85
38038;BME280;23843;51.320;12.340;2022-07-23T08:09:42;100508.47;;;21.34;69.96
38038;BME280;23843;51.320;12.340;2022-07-23T08:12:09;100505.31;;;21.49;70.46
38038;BME280;23843;51.320;12.340;2022-07-23T08:14:34;100515.41;;;21.65;70.02
38038;BME280;23843;51.320;12.340;2022-07-23T08:17:00;100513.28;;;21.68;69.97
38038;BME280;23843;51.320;12.340;2022-07-23T08:19:28;100501.50;;;21.69;70.47
38038;BME280;23843;51.320;12.340;2022-07-23T08:21:53;100508.34;;;21.82;70.63
38038;BME280;23843;51.320;12.340;2022-07-23T08:24:19;100509.00;;;21.93;69.59
38038;BME280;23843;51.320;12.340;2022-07-23T08:26:44;100511.31;;;22.06;68.67
38038;BME280;23843;51.320;12.340;2022-07-23T08:29:11;100519.78;;;22.11;69.11
38038;BME280;23843;51.320;12.340;2022-07-23T08:31:36;100519.41;;;22.06;68.63
38038;BME280;23843;51.320;12.340;2022-07-23T08:34:02;100526.88;;;21.94;68.95
38038;BME280;23843;51.320;12.340;2022-07-23T08:36:27;100525.94;;;21.86;68.79
38038;BME280;23843;51.320;12.340;2022-07-23T08:38:53;100529.09;;;21.99;68.42
38038;BME280;23843;51.320;12.340;2022-07-23T08:41:19;100527.19;;;22.09;68.54
38038;BME280;23843;51.320;12.340;2022-07-23T08:43:44;100530.81;;;22.18;68.69
38038;BME280;23843;51.320;12.340;2022-07-23T08:46:12;100529.03;;;22.09;68.77
38038;BME280;23843;51.320;12.340;2022-07-23T08:48:38;100539.63;;;22.02;68.86
38038;BME280;23843;51.320;12.340;2022-07-23T08:51:05;100540.13;;;22.06;68.82
38038;BME280;23843;51.320;12.340;2022-07-23T08:53:32;100537.06;;;22.18;67.89
38038;BME280;23843;51.320;12.340;2022-07-23T08:55:59;100531.78;;;22.27;68.25
38038;BME280;23843;51.320;12.340;2022-07-23T08:58:25;100532.63;;;22.27;68.09
38038;BME280;23843;51.320;12.340;2022-07-23T09:00:50;100540.97;;;22.34;68.65
38038;BME280;23843;51.320;12.340;2022-07-23T09:03:19;100547.59;;;22.39;68.89
38038;BME280;23843;51.320;12.340;2022-07-23T09:05:45;100554.59;;;22.50;67.22
38038;BME280;23843;51.320;12.340;2022-07-23T09:08:12;100548.56;;;22.56;66.99
38038;BME280;23843;51.320;12.340;2022-07-23T09:10:47;100549.47;;;22.65;66.34
38038;BME280;23843;51.320;12.340;2022-07-23T09:13:24;100550.63;;;22.62;66.07
38038;BME280;23843;51.320;12.340;2022-07-23T09:15:50;100553.34;;;22.62;66.59
38038;BME280;23843;51.320;12.340;2022-07-23T09:18:17;100571.84;;;22.57;66.61
38038;BME280;23843;51.320;12.340;2022-07-23T09:20:43;100575.97;;;22.43;66.40
38038;BME280;23843;51.320;12.340;2022-07-23T09:23:08;100584.28;;;22.32;66.19
38038;BME280;23843;51.320;12.340;2022-07-23T09:25:34;100578.34;;;22.29;65.69
38038;BME280;23843;51.320;12.340;2022-07-23T09:28:00;100575.81;;;22.27;66.14
38038;BME280;23843;51.320;12.340;2022-07-23T09:30:28;100585.31;;;22.31;66.40
38038;BME280;23843;51.320;12.340;2022-07-23T09:33:07;100581.72;;;22.31;65.81
38038;BME280;23843;51.320;12.340;2022-07-23T09:35:49;100585.44;;;22.48;65.75
38038;BME280;23843;51.320;12.340;2022-07-23T09:38:15;100585.22;;;22.59;65.48
38038;BME280;23843;51.320;12.340;2022-07-23T09:40:41;100581.59;;;22.68;64.77
38038;BME280;23843;51.320;12.340;2022-07-23T09:43:08;100583.72;;;22.64;65.10
38038;BME280;23843;51.320;12.340;2022-07-23T09:45:34;100570.38;;;22.81;65.30
38038;BME280;23843;51.320;12.340;2022-07-23T09:48:10;100571.25;;;22.63;65.44
38038;BME280;23843;51.320;12.340;2022-07-23T09:50:35;100587.22;;;22.57;64.33
38038;BME280;23843;51.320;12.340;2022-07-23T09:53:02;100586.69;;;22.53;64.12
38038;BME280;23843;51.320;12.340;2022-07-23T09:55:31;100579.97;;;22.39;64.60
38038;BME280;23843;51.320;12.340;2022-07-23T09:57:57;100574.34;;;22.33;65.25
38038;BME280;23843;51.320;12.340;2022-07-23T10:00:22;100582.44;;;22.33;65.14
38038;BME280;23843;51.320;12.340;2022-07-23T10:02:49;100593.72;;;22.46;65.20
38038;BME280;23843;51.320;12.340;2022-07-23T10:05:15;100595.09;;;22.32;64.11
38038;BME280;23843;51.320;12.340;2022-07-23T10:07:41;100600.81;;;22.29;64.51
38038;BME280;23843;51.320;12.340;2022-07-23T10:10:09;100595.28;;;22.21;64.72
38038;BME280;23843;51.320;12.340;2022-07-23T10:12:36;100601.72;;;22.20;65.46
38038;BME280;23843;51.320;12.340;2022-07-23T10:15:01;100594.78;;;22.35;64.64
38038;BME280;23843;51.320;12.340;2022-07-23T10:17:28;100606.97;;;22.21;64.59
38038;BME280;23843;51.320;12.340;2022-07-23T10:19:53;100600.69;;;22.21;64.98
38038;BME280;23843;51.320;12.340;2022-07-23T10:22:21;100597.66;;;22.34;64.03
38038;BME280;23843;51.320;12.340;2022-07-23T10:24:53;100608.19;;;22.45;63.30
38038;BME280;23843;51.320;12.340;2022-07-23T10:27:42;100611.06;;;22.43;62.76
38038;BME280;23843;51.320;12.340;2022-07-23T10:30:16;100608.66;;;22.22;63.83
38038;BME280;23843;51.320;12.340;2022-07-23T10:32:49;100602.91;;;22.08;64.56
38038;BME280;23843;51.320;12.340;2022-07-23T10:35:23;100608.81;;;22.11;64.72
38038;BME280;23843;51.320;12.340;2022-07-23T10:37:55;100604.97;;;22.14;64.36
38038;BME280;23843;51.320;12.340;2022-07-23T10:40:22;100606.97;;;22.21;64.25
38038;BME280;23843;51.320;12.340;2022-07-23T10:42:50;100608.91;;;22.29;64.06
38038;BME280;23843;51.320;12.340;2022-07-23T10:45:24;100603.09;;;22.24;64.30
38038;BME280;23843;51.320;12.340;2022-07-23T10:47:50;100598.38;;;22.26;64.07
38038;BME280;23843;51.320;12.340;2022-07-23T10:50:24;100598.25;;;22.28;64.56
38038;BME280;23843;51.320;12.340;2022-07-23T10:53:13;100592.75;;;22.19;64.57
38038;BME280;23843;51.320;12.340;2022-07-23T10:55:45;100599.75;;;22.12;65.79
38038;BME280;23843;51.320;12.340;2022-07-23T10:58:18;100602.78;;;22.27;65.97
38038;BME280;23843;51.320;12.340;2022-07-23T11:00:44;100607.94;;;22.38;64.93
38038;BME280;23843;51.320;12.340;2022-07-23T11:03:31;100606.66;;;22.42;64.67
38038;BME280;23843;51.320;12.340;2022-07-23T11:05:56;100605.19;;;22.48;64.45
38038;BME280;23843;51.320;12.340;2022-07-23T11:08:22;100614.91;;;22.41;65.36
38038;BME280;23843;51.320;12.340;2022-07-23T11:10:50;100620.72;;;22.46;64.94
38038;BME280;23843;51.320;12.340;2022-07-23T11:13:29;100622.00;;;22.60;64.02
38038;BME280;23843;51.320;12.340;2022-07-23T11:16:24;100618.13;;;22.62;63.42
38038;BME280;23843;51.320;12.340;2022-07-23T11:19:04;100612.53;;;22.56;64.13
38038;BME280;23843;51.320;12.340;2022-07-23T11:21:43;100619.44;;;22.40;65.26
38038;BME280;23843;51.320;12.340;2022-07-23T11:24:10;100614.69;;;22.34;64.98
38038;BME280;23843;51.320;12.340;2022-07-23T11:26:48;100612.50;;;22.38;64.81
38038;BME280;23843;51.320;12.340;2022-07-23T11:29:48;100612.38;;;22.39;64.26
38038;BME280;23843;51.320;12.340;2022-07-23T11:32:38;100611.28;;;22.32;64.77
38038;BME280;23843;51.320;12.340;2022-07-23T11:35:20;100603.56;;;22.37;63.74
38038;BME280;23843;51.320;12.340;2022-07-23T11:37:47;100603.81;;;22.44;64.32
38038;BME280;23843;51.320;12.340;2022-07-23T11:40:15;100602.34;;;22.50;64.31
38038;BME280;23843;51.320;12.340;2022-07-23T11:42:52;100604.56;;;22.54;64.03
38038;BME280;23843;51.320;12.340;2022-07-23T11:45:19;100606.72;;;22.69;63.55
38038;BME280;23843;51.320;12.340;2022-07-23T11:47:45;100599.66;;;22.94;63.32
38038;BME280;23843;51.320;12.340;2022-07-23T11:50:10;100598.81;;;23.11;62.57
38038;BME280;23843;51.320;12.340;2022-07-23T11:52:36;100593.25;;;23.13;63.01
38038;BME280;23843;51.320;12.340;2022-07-23T11:55:04;100594.13;;;23.21;62.55
38038;BME280;23843;51.320;12.340;2022-07-23T11:57:32;100605.75;;;23.14;61.48
38038;BME280;23843;51.320;12.340;2022-07-23T12:00:02;100593.66;;;23.26;61.68
38038;BME280;23843;51.320;12.340;2022-07-23T12:02:30;100584.25;;;23.30;61.05
38038;BME280;23843;51.320;12.340;2022-07-23T12:04:55;100592.09;;;23.41;61.67
38038;BME280;23843;51.320;12.340;2022-07-23T12:07:25;100602.66;;;23.61;60.63
38038;BME280;23843;51.320;12.340;2022-07-23T12:09:51;100599.47;;;23.65;60.42
38038;BME280;23843;51.320;12.340;2022-07-23T12:12:16;100594.81;;;23.76;60.92
38038;BME280;23843;51.320;12.340;2022-07-23T12:14:48;100591.16;;;23.93;59.76
38038;BME280;23843;51.320;12.340;2022-07-23T12:17:13;100602.44;;;23.80;59.25
38038;BME280;23843;51.320;12.340;2022-07-23T12:19:40;100594.91;;;23.66;59.48
38038;BME280;23843;51.320;12.340;2022-07-23T12:22:05;100594.59;;;23.43;59.93
38038;BME280;23843;51.320;12.340;2022-07-23T12:24:31;100595.66;;;23.50;60.98
38038;BME280;23843;51.320;12.340;2022-07-23T12:27:20;100594.47;;;23.79;60.22
38038;BME280;23843;51.320;12.340;2022-07-23T12:29:45;100593.69;;;23.95;59.41
38038;BME280;23843;51.320;12.340;2022-07-23T12:32:19;100591.53;;;24.06;58.71
38038;BME280;23843;51.320;12.340;2022-07-23T12:34:48;100595.75;;;24.09;58.57
38038;BME280;23843;51.320;12.340;2022-07-23T12:37:27;100591.22;;;24.18;58.99
38038;BME280;23843;51.320;12.340;2022-07-23T12:39:53;100594.28;;;24.23;58.47